Aérodrome :
LOGIN :

S'inscrire | Disclaimer

   EN    FR    IT 

 










Légende :    VFR   VFR Marginal   IFR   IFR Intensif   IFR Très Intensif
Visi : 
Plafond : 
>= 8 km
>= 3000ft
5 à 8 km
1000 à 3000 ft
1500m à 5 km
500 à 1000 ft
800 à 1500m
200 à 500 ft
< 800m
< 200 ft
Symboles :   Orages  Brouillard  Fortes neiges  Fortes précipitations  Vent > 20 kt
SIGMETs :   Divers  Orages  Givrage  Turbulence  Onde Orograph.  Cendres Volcan.






- Altitude de l'aérodrome : 37 ft


EGOW - Woodvale

DERNIER METAR :
  • 141420Z 26013KT 9999 FEW030 12/04 Q1019 RMK BLU

METARs EXPIRÉS :
  • 141350Z 26011KT 9999 FEW025 11/05 Q1020 RMK BLU
  • 141320Z 26014KT 9999 FEW030 12/05 Q1020 RMK BLU
  • 141250Z 25015KT 9999 FEW030 12/05 Q1021 RMK BLU
  • 141220Z 26013KT 9999 FEW024 11/05 Q1021 RMK BLU
  • 141150Z 26014KT 9999 FEW024 11/05 Q1021 RMK BLU
  • 141120Z 23018KT 9999 FEW024 11/05 Q1022 RMK BLU
  • 141050Z 23012KT 9999 FEW024 12/06 Q1022 RMK BLU
  • 141020Z 24015KT 9999 FEW025 11/05 Q1022 RMK BLU

TAF TAF EGOW
Valide du 14 à 15h jusqu'au 14 à 18h UTC


141408Z 1415/1418 25014KT 9999 FEW025
TEMPO 1415/1418 25015G25KT
PROB30
TEMPO 1415/1418 7000 SHRA SCT024



MET'MAP, la Météo Aéronautique d'un coup d'oeil ! - Copyright ORBIFLY Décembre 2007 - Disclaimer

ORBIFLY MET'MAP TEAM :

Programmation & Développement : Alexandra Zaïnal
Sur une idée originale de : Baudouin d'Aumeries
Soutien technique & logistique : Manuel Goepfert
Assistance : Marc-Olivier Méhu




SOURCES & CREDITS :

   NOAA